Time;durP1;ratioP1;P1;durP2;ratioP2;P2;SDS_P1;SDS_P2;PMS_P1;PMS_P2;Temp;Humidity;BMP_temperature;BMP_pressure;BME280_temperature;BME280_humidity;BME280_pressure;Samples;Min_cycle;Max_cycle;Signal;HPM_P1;HPM_P2
2021/07/28 00:01:11;;;;;;;13.82;9.02;;;;;;;;;;5051109;28;20028;-76
2021/07/28 00:03:37;;;;;;;11.30;7.68;;;;;;;;;;5042401;28;20563;-76
2021/07/28 00:06:02;;;;;;;714.08;87.38;;;;;;;;;;5050292;28;20021;-76
2021/07/28 00:08:28;;;;;;;16.92;8.20;;;;;;;;;;5038774;28;20025;-76
2021/07/28 00:10:53;;;;;;;14.23;7.82;;;;;;;;;;5047067;28;20044;-76
2021/07/28 00:13:18;;;;;;;10.40;7.55;;;;;;;;;;5041371;28;20037;-76
2021/07/28 00:15:44;;;;;;;11.45;7.70;;;;;;;;;;5039632;28;20033;-76
2021/07/28 00:18:31;;;;;;;13.13;7.38;;;;;;;;;;5046330;28;20430;-76
2021/07/28 00:23:30;;;;;;;12.80;8.13;;;;;;;;;;5040670;28;20037;-76
2021/07/28 00:25:56;;;;;;;11.00;8.18;;;;;;;;;;5046510;28;20040;-76
2021/07/28 00:28:22;;;;;;;12.02;7.63;;;;;;;;;;5048173;28;20090;-76
2021/07/28 00:30:47;;;;;;;11.90;8.25;;;;;;;;;;5048313;28;20398;-76
2021/07/28 00:33:13;;;;;;;13.57;8.38;;;;;;;;;;5049433;28;20473;-76
2021/07/28 00:35:38;;;;;;;12.65;8.50;;;;;;;;;;5046902;28;20025;-76
2021/07/28 00:38:07;;;;;;;13.77;9.05;;;;;;;;;;5045466;28;20082;-76
2021/07/28 00:40:33;;;;;;;15.18;8.88;;;;;;;;;;5035971;28;20527;-76
2021/07/28 00:43:13;;;;;;;13.00;7.65;;;;;;;;;;5047869;28;20037;-76
2021/07/28 00:45:40;;;;;;;15.02;9.63;;;;;;;;;;5041714;28;20033;-76
2021/07/28 00:48:07;;;;;;;13.43;9.45;;;;;;;;;;5045993;28;20057;-76
2021/07/28 00:50:34;;;;;;;17.17;9.68;;;;;;;;;;5046337;28;20029;-77
2021/07/28 00:53:01;;;;;;;16.77;9.77;;;;;;;;;;5040249;28;20036;-76
2021/07/28 00:55:29;;;;;;;14.23;9.30;;;;;;;;;;5034722;28;20449;-77
2021/07/28 00:57:54;;;;;;;14.05;9.20;;;;;;;;;;5043028;28;20120;-76
2021/07/28 01:00:20;;;;;;;14.82;9.68;;;;;;;;;;5045414;28;20147;-76
2021/07/28 01:02:45;;;;;;;14.52;10.10;;;;;;;;;;5048971;28;20048;-76
2021/07/28 01:05:11;;;;;;;14.68;9.20;;;;;;;;;;5047144;28;20025;-76
2021/07/28 01:07:36;;;;;;;13.57;9.38;;;;;;;;;;5045762;28;20388;-76
2021/07/28 01:10:02;;;;;;;14.57;9.68;;;;;;;;;;5048765;28;20075;-77
2021/07/28 01:12:31;;;;;;;15.95;9.75;;;;;;;;;;5041237;28;20083;-76
2021/07/28 01:14:57;;;;;;;12.88;9.02;;;;;;;;;;5045066;28;20028;-76
2021/07/28 01:17:23;;;;;;;17.02;9.45;;;;;;;;;;5046916;28;20575;-76
2021/07/28 01:20:00;;;;;;;16.15;8.50;;;;;;;;;;5033311;28;20435;-76
2021/07/28 01:22:25;;;;;;;13.15;9.43;;;;;;;;;;5047005;28;20035;-77
2021/07/28 01:24:51;;;;;;;16.48;9.45;;;;;;;;;;5049767;28;20119;-74
2021/07/28 01:27:17;;;;;;;14.63;10.00;;;;;;;;;;5037577;28;20124;-75
2021/07/28 01:29:43;;;;;;;18.80;11.05;;;;;;;;;;5043954;28;20039;-75
2021/07/28 01:32:08;;;;;;;19.23;11.77;;;;;;;;;;5042294;28;20120;-75
2021/07/28 01:34:35;;;;;;;20.25;11.88;;;;;;;;;;5046941;28;20444;-75
2021/07/28 01:37:02;;;;;;;17.00;11.38;;;;;;;;;;5047067;28;20021;-75
2021/07/28 01:39:27;;;;;;;19.83;11.25;;;;;;;;;;5037027;28;20404;-75
2021/07/28 01:42:02;;;;;;;17.02;9.98;;;;;;;;;;5040157;28;20503;-75
2021/07/28 01:44:27;;;;;;;16.85;9.98;;;;;;;;;;5043771;28;20033;-76
2021/07/28 01:46:53;;;;;;;16.58;10.48;;;;;;;;;;5039631;28;20183;-75
2021/07/28 01:49:19;;;;;;;17.30;10.63;;;;;;;;;;5048522;28;20031;-75
2021/07/28 01:51:44;;;;;;;15.32;10.13;;;;;;;;;;5041713;28;20086;-75
2021/07/28 01:54:10;;;;;;;15.52;9.98;;;;;;;;;;5040170;28;20021;-76
2021/07/28 01:56:42;;;;;;;17.23;11.18;;;;;;;;;;5033079;28;20116;-76
2021/07/28 01:59:11;;;;;;;20.17;10.95;;;;;;;;;;5042304;28;20029;-75
2021/07/28 02:01:37;;;;;;;23.50;12.98;;;;;;;;;;5044180;28;20033;-75
2021/07/28 02:04:02;;;;;;;21.38;12.85;;;;;;;;;;5045526;28;20382;-75
2021/07/28 02:06:27;;;;;;;22.23;14.02;;;;;;;;;;5042344;28;20074;-75
2021/07/28 02:08:53;;;;;;;24.13;14.68;;;;;;;;;;5046395;28;20111;-75
2021/07/28 02:11:18;;;;;;;24.35;13.93;;;;;;;;;;5043188;28;20043;-75
2021/07/28 02:13:44;;;;;;;22.67;14.40;;;;;;;;;;5044908;28;20401;-75
2021/07/28 02:16:09;;;;;;;22.55;13.50;;;;;;;;;;5034286;28;20124;-76
2021/07/28 02:18:35;;;;;;;24.98;14.82;;;;;;;;;;5046113;28;20036;-75
2021/07/28 02:21:01;;;;;;;19.65;13.38;;;;;;;;;;5042791;28;20024;-75
2021/07/28 02:23:27;;;;;;;21.52;13.30;;;;;;;;;;5036543;28;20037;-76
2021/07/28 02:25:53;;;;;;;20.95;13.55;;;;;;;;;;5039853;28;20115;-75
2021/07/28 02:28:19;;;;;;;21.20;13.82;;;;;;;;;;5041953;28;20023;-75
2021/07/28 02:30:44;;;;;;;24.20;13.98;;;;;;;;;;5044450;28;20455;-76
2021/07/28 02:33:10;;;;;;;24.33;15.10;;;;;;;;;;5045276;28;23570;-75
2021/07/28 02:35:36;;;;;;;24.58;14.38;;;;;;;;;;5040226;28;20056;-76
2021/07/28 02:38:02;;;;;;;21.02;13.30;;;;;;;;;;5041083;28;20461;-75
2021/07/28 02:40:27;;;;;;;21.48;13.80;;;;;;;;;;5040975;28;21949;-75
2021/07/28 02:42:53;;;;;;;24.83;14.73;;;;;;;;;;5035948;28;20111;-75
2021/07/28 02:45:18;;;;;;;24.55;14.38;;;;;;;;;;5041966;28;20464;-75
2021/07/28 02:47:44;;;;;;;20.00;13.68;;;;;;;;;;5042100;28;20029;-75
2021/07/28 02:50:10;;;;;;;23.42;13.60;;;;;;;;;;5045378;28;20511;-75
2021/07/28 02:52:36;;;;;;;21.98;13.57;;;;;;;;;;5030705;28;20033;-75
2021/07/28 02:55:06;;;;;;;20.65;12.35;;;;;;;;;;5046749;28;20039;-75
2021/07/28 02:57:32;;;;;;;23.05;13.35;;;;;;;;;;5037934;28;20055;-75
2021/07/28 02:59:58;;;;;;;21.52;13.18;;;;;;;;;;5042019;28;20568;-75
2021/07/28 03:02:23;;;;;;;25.80;13.43;;;;;;;;;;5038595;28;20112;-76
2021/07/28 03:04:49;;;;;;;21.08;14.02;;;;;;;;;;5047038;28;20100;-76
2021/07/28 03:07:14;;;;;;;21.35;13.10;;;;;;;;;;5041488;28;20047;-75
2021/07/28 03:09:39;;;;;;;20.63;13.57;;;;;;;;;;5040946;28;20132;-76
2021/07/28 03:12:05;;;;;;;20.80;12.80;;;;;;;;;;5047441;28;20029;-76
2021/07/28 03:14:31;;;;;;;20.02;12.70;;;;;;;;;;5044423;28;20044;-76
2021/07/28 03:16:56;;;;;;;19.33;11.70;;;;;;;;;;5036238;28;20013;-76
2021/07/28 03:19:22;;;;;;;21.77;13.48;;;;;;;;;;5046008;28;20025;-76
2021/07/28 03:21:50;;;;;;;23.30;13.05;;;;;;;;;;5042310;28;20032;-76
2021/07/28 03:24:18;;;;;;;19.27;12.68;;;;;;;;;;5043870;28;20039;-76
2021/07/28 03:26:45;;;;;;;20.55;13.23;;;;;;;;;;5045434;28;20041;-76
2021/07/28 03:29:11;;;;;;;18.27;12.27;;;;;;;;;;5041771;28;20021;-76
2021/07/28 03:31:36;;;;;;;21.50;12.77;;;;;;;;;;5036144;28;20032;-76
2021/07/28 03:34:02;;;;;;;22.70;13.25;;;;;;;;;;5046442;28;20025;-76
2021/07/28 03:36:27;;;;;;;18.77;12.60;;;;;;;;;;5040822;28;20369;-76
2021/07/28 03:38:52;;;;;;;20.95;12.45;;;;;;;;;;5045046;28;20489;-75
2021/07/28 03:41:18;;;;;;;19.55;13.32;;;;;;;;;;5040061;28;20039;-75
2021/07/28 03:43:43;;;;;;;21.10;13.75;;;;;;;;;;5038846;28;20108;-75
2021/07/28 03:46:09;;;;;;;21.33;13.90;;;;;;;;;;5044543;28;20123;-76
2021/07/28 03:48:34;;;;;;;21.02;13.30;;;;;;;;;;5040745;28;20060;-76
2021/07/28 03:51:00;;;;;;;22.40;13.10;;;;;;;;;;5048822;28;20033;-75
2021/07/28 03:53:26;;;;;;;20.77;13.55;;;;;;;;;;5041636;28;20034;-76
2021/07/28 03:55:51;;;;;;;19.27;12.80;;;;;;;;;;5042271;28;20292;-76
2021/07/28 03:58:17;;;;;;;24.50;13.63;;;;;;;;;;5047865;28;20418;-76
2021/07/28 04:00:43;;;;;;;21.92;12.95;;;;;;;;;;5040615;28;20052;-76
2021/07/28 04:03:08;;;;;;;24.45;15.57;;;;;;;;;;5046739;28;20025;-76
2021/07/28 04:05:34;;;;;;;22.45;14.27;;;;;;;;;;5036244;28;20136;-75
2021/07/28 04:07:59;;;;;;;26.90;14.32;;;;;;;;;;5046738;28;20033;-76
2021/07/28 04:10:25;;;;;;;22.52;13.65;;;;;;;;;;5039256;28;20132;-76
2021/07/28 04:12:50;;;;;;;21.58;12.82;;;;;;;;;;5046876;28;20120;-76
2021/07/28 04:15:16;;;;;;;22.75;13.60;;;;;;;;;;5045232;28;20028;-76
2021/07/28 04:17:41;;;;;;;21.75;12.90;;;;;;;;;;5046571;28;20025;-76
2021/07/28 04:20:07;;;;;;;22.15;13.25;;;;;;;;;;5039918;28;20409;-76
2021/07/28 04:22:32;;;;;;;18.67;12.70;;;;;;;;;;5044096;28;20174;-76
2021/07/28 04:25:01;;;;;;;20.25;12.77;;;;;;;;;;5040305;28;20040;-76
2021/07/28 04:27:29;;;;;;;19.13;11.98;;;;;;;;;;5048088;28;20033;-76
2021/07/28 04:29:55;;;;;;;20.13;13.03;;;;;;;;;;5045922;28;20051;-76
2021/07/28 04:32:21;;;;;;;21.33;14.25;;;;;;;;;;5040048;28;20632;-76
2021/07/28 04:34:46;;;;;;;21.52;13.02;;;;;;;;;;5038101;28;20032;-76
2021/07/28 04:37:12;;;;;;;19.40;12.98;;;;;;;;;;5048180;28;20024;-76
2021/07/28 04:39:37;;;;;;;21.65;12.10;;;;;;;;;;5042717;28;20399;-76
2021/07/28 04:42:03;;;;;;;20.85;12.95;;;;;;;;;;5050361;28;20082;-75
2021/07/28 04:44:28;;;;;;;22.52;14.25;;;;;;;;;;5042110;28;20025;-74
2021/07/28 04:46:56;;;;;;;22.00;14.25;;;;;;;;;;5041776;28;20528;-75
2021/07/28 04:49:21;;;;;;;19.25;12.52;;;;;;;;;;5041624;28;20029;-75
2021/07/28 04:51:47;;;;;;;22.92;15.68;;;;;;;;;;5040242;28;20029;-75
2021/07/28 04:54:12;;;;;;;26.17;15.20;;;;;;;;;;5037887;28;20028;-75
2021/07/28 04:56:38;;;;;;;21.48;13.95;;;;;;;;;;5045480;28;20448;-75
2021/07/28 04:59:03;;;;;;;19.45;12.52;;;;;;;;;;5045991;28;20478;-75
2021/07/28 05:01:29;;;;;;;18.05;12.18;;;;;;;;;;5042481;28;20029;-74
2021/07/28 05:03:54;;;;;;;19.40;12.85;;;;;;;;;;5039380;28;20040;-75
2021/07/28 05:06:20;;;;;;;21.00;13.23;;;;;;;;;;5050638;28;20101;-75
2021/07/28 05:08:45;;;;;;;20.40;12.77;;;;;;;;;;5046892;28;20025;-77
2021/07/28 05:11:11;;;;;;;16.58;11.63;;;;;;;;;;5046420;28;20081;-76
2021/07/28 05:13:36;;;;;;;19.77;12.48;;;;;;;;;;5036373;28;20057;-76
2021/07/28 05:16:07;;;;;;;24.80;15.93;;;;;;;;;;5040329;28;20051;-76
2021/07/28 05:18:33;;;;;;;22.05;12.35;;;;;;;;;;5035045;28;20028;-75
2021/07/28 05:20:58;;;;;;;17.67;11.15;;;;;;;;;;5044175;28;20029;-76
2021/07/28 05:23:24;;;;;;;14.63;10.35;;;;;;;;;;5045647;28;20021;-76
2021/07/28 05:25:50;;;;;;;15.13;11.30;;;;;;;;;;5038305;28;20083;-76
2021/07/28 05:28:15;;;;;;;16.70;11.65;;;;;;;;;;5046460;28;20111;-76
2021/07/28 05:30:40;;;;;;;19.20;12.40;;;;;;;;;;5044179;28;20119;-75
2021/07/28 05:33:06;;;;;;;22.85;14.98;;;;;;;;;;5035318;28;20120;-74
2021/07/28 05:35:31;;;;;;;20.50;12.95;;;;;;;;;;5046159;28;20107;-74
2021/07/28 05:38:01;;;;;;;18.73;11.38;;;;;;;;;;5040630;28;20021;-74
2021/07/28 05:40:27;;;;;;;13.95;9.80;;;;;;;;;;5042835;28;20044;-74
2021/07/28 05:42:53;;;;;;;14.95;10.13;;;;;;;;;;5044540;28;20043;-75
2021/07/28 05:45:18;;;;;;;18.25;11.25;;;;;;;;;;5033309;28;20029;-75
2021/07/28 05:47:45;;;;;;;15.38;10.98;;;;;;;;;;5042468;28;20363;-75
2021/07/28 05:50:12;;;;;;;15.20;10.50;;;;;;;;;;5041361;28;20116;-75
2021/07/28 05:52:37;;;;;;;17.23;9.73;;;;;;;;;;5043434;28;20036;-76
2021/07/28 05:55:03;;;;;;;12.30;9.73;;;;;;;;;;5043554;28;20029;-77
2021/07/28 05:57:28;;;;;;;13.55;8.52;;;;;;;;;;5037677;28;20036;-75
2021/07/28 05:59:54;;;;;;;12.23;8.55;;;;;;;;;;5037397;28;20090;-74
2021/07/28 06:02:26;;;;;;;14.25;9.25;;;;;;;;;;5045559;28;20434;-59
2021/07/28 06:04:51;;;;;;;11.82;9.15;;;;;;;;;;5028663;28;20038;-58
2021/07/28 06:07:17;;;;;;;14.57;9.43;;;;;;;;;;5023508;28;20052;-61
2021/07/28 06:09:42;;;;;;;14.07;8.10;;;;;;;;;;5022890;28;20041;-60
2021/07/28 06:12:08;;;;;;;10.55;7.88;;;;;;;;;;5021906;28;20542;-58
2021/07/28 06:14:34;;;;;;;10.77;8.40;;;;;;;;;;5024059;28;20120;-60
2021/07/28 06:17:00;;;;;;;14.68;8.65;;;;;;;;;;5021664;28;20025;-59
2021/07/28 06:19:25;;;;;;;13.15;8.75;;;;;;;;;;5004866;28;20271;-59
2021/07/28 06:21:50;;;;;;;13.88;9.10;;;;;;;;;;5022565;28;20419;-59
2021/07/28 06:24:16;;;;;;;13.23;7.95;;;;;;;;;;5022781;28;20041;-60
2021/07/28 06:26:41;;;;;;;11.52;8.00;;;;;;;;;;5024023;28;20442;-59
2021/07/28 06:29:07;;;;;;;13.52;8.23;;;;;;;;;;5022141;28;20507;-59
2021/07/28 06:31:32;;;;;;;11.15;8.38;;;;;;;;;;5006712;28;20484;-59
2021/07/28 06:33:57;;;;;;;13.05;7.93;;;;;;;;;;5023056;28;20071;-59
2021/07/28 06:36:23;;;;;;;10.18;7.35;;;;;;;;;;5021631;28;20461;-59
2021/07/28 06:38:48;;;;;;;9.98;6.70;;;;;;;;;;5021423;28;20037;-59
2021/07/28 06:41:14;;;;;;;15.25;8.75;;;;;;;;;;5023084;28;20193;-59
2021/07/28 06:43:39;;;;;;;10.60;7.80;;;;;;;;;;5023325;28;20059;-59
2021/07/28 06:46:05;;;;;;;10.20;7.15;;;;;;;;;;5026259;28;20041;-58
2021/07/28 06:48:30;;;;;;;12.73;8.55;;;;;;;;;;5021199;28;20025;-59
2021/07/28 06:50:56;;;;;;;10.90;7.35;;;;;;;;;;5022117;28;20530;-59
2021/07/28 06:53:21;;;;;;;12.07;6.97;;;;;;;;;;5020632;28;20034;-59
2021/07/28 06:55:47;;;;;;;8.90;6.55;;;;;;;;;;5021701;28;20079;-59
2021/07/28 06:58:12;;;;;;;10.93;7.25;;;;;;;;;;5020822;28;20024;-59
2021/07/28 07:00:38;;;;;;;13.13;7.13;;;;;;;;;;5021360;28;20423;-59
2021/07/28 07:03:03;;;;;;;10.15;6.60;;;;;;;;;;5004648;28;20029;-59
2021/07/28 07:05:29;;;;;;;11.68;7.25;;;;;;;;;;5020485;28;20040;-59
2021/07/28 07:07:54;;;;;;;10.95;7.50;;;;;;;;;;5003119;28;20048;-59
2021/07/28 07:10:21;;;;;;;12.55;7.70;;;;;;;;;;5023628;28;20029;-59
2021/07/28 07:12:47;;;;;;;11.13;7.43;;;;;;;;;;5013873;28;20050;-59
2021/07/28 07:15:12;;;;;;;10.35;7.40;;;;;;;;;;5007709;28;20057;-60
2021/07/28 07:17:38;;;;;;;12.82;7.32;;;;;;;;;;5009897;28;20278;-59
2021/07/28 07:20:04;;;;;;;14.35;6.90;;;;;;;;;;5006179;28;20145;-60
2021/07/28 07:22:30;;;;;;;9.55;6.40;;;;;;;;;;5007636;28;20037;-59
2021/07/28 07:24:55;;;;;;;10.18;6.70;;;;;;;;;;4990842;28;20378;-59
2021/07/28 07:27:21;;;;;;;9.68;6.95;;;;;;;;;;5007007;28;20091;-59
2021/07/28 07:29:48;;;;;;;10.93;6.78;;;;;;;;;;5008331;28;20064;-59
2021/07/28 07:32:13;;;;;;;8.23;6.35;;;;;;;;;;5009291;28;20048;-58
2021/07/28 07:34:39;;;;;;;10.23;6.72;;;;;;;;;;5006785;28;20037;-59
2021/07/28 07:37:04;;;;;;;9.18;6.53;;;;;;;;;;5008235;28;20030;-59
2021/07/28 07:39:31;;;;;;;9.98;6.50;;;;;;;;;;5007648;28;20037;-59
2021/07/28 07:41:56;;;;;;;10.75;6.80;;;;;;;;;;5008755;28;20060;-59
2021/07/28 07:44:22;;;;;;;12.45;6.90;;;;;;;;;;5007265;28;20029;-60
2021/07/28 07:46:47;;;;;;;11.73;6.40;;;;;;;;;;5008645;28;20029;-59
2021/07/28 07:49:13;;;;;;;9.40;5.70;;;;;;;;;;5006964;28;20030;-59
2021/07/28 07:51:38;;;;;;;9.88;6.32;;;;;;;;;;5007378;28;20018;-59
2021/07/28 07:54:03;;;;;;;8.75;6.13;;;;;;;;;;5009385;28;20489;-59
2021/07/28 07:56:29;;;;;;;10.70;6.70;;;;;;;;;;5006400;28;20034;-59
2021/07/28 07:58:54;;;;;;;10.13;6.60;;;;;;;;;;5006790;28;20049;-59
2021/07/28 08:01:20;;;;;;;8.98;6.25;;;;;;;;;;5005838;28;20021;-59
2021/07/28 08:03:45;;;;;;;9.38;5.82;;;;;;;;;;5009480;28;20075;-58
2021/07/28 08:06:11;;;;;;;11.40;6.55;;;;;;;;;;5007229;28;20492;-59
2021/07/28 08:08:38;;;;;;;9.95;6.38;;;;;;;;;;5007410;28;20404;-59
2021/07/28 08:11:14;;;;;;;11.43;6.50;;;;;;;;;;5008341;28;20040;-59
2021/07/28 08:13:40;;;;;;;12.30;7.35;;;;;;;;;;5007459;28;20053;-59
2021/07/28 08:16:24;;;;;;;10.90;7.00;;;;;;;;;;4995305;28;20029;-59
2021/07/28 08:18:50;;;;;;;9.30;6.63;;;;;;;;;;5001554;28;20506;-59
2021/07/28 08:21:16;;;;;;;10.82;5.68;;;;;;;;;;5006798;28;20060;-61
2021/07/28 08:23:45;;;;;;;8.55;5.50;;;;;;;;;;5019402;28;20037;-61
2021/07/28 08:26:12;;;;;;;6.10;5.40;;;;;;;;;;5009270;28;20030;-60
2021/07/28 08:28:38;;;;;;;9.85;5.80;;;;;;;;;;5004994;28;20072;-60
2021/07/28 08:31:04;;;;;;;8.50;5.97;;;;;;;;;;5007981;28;20104;-61
2021/07/28 08:33:29;;;;;;;9.10;5.97;;;;;;;;;;4989567;28;20032;-61
2021/07/28 08:35:56;;;;;;;7.32;5.63;;;;;;;;;;5007522;28;20034;-61
2021/07/28 08:38:22;;;;;;;10.43;6.20;;;;;;;;;;5006331;28;20451;-61
2021/07/28 08:41:00;;;;;;;9.95;6.30;;;;;;;;;;5008968;28;20113;-60
2021/07/28 08:43:37;;;;;;;9.73;5.95;;;;;;;;;;5006289;28;20037;-61
2021/07/28 08:46:05;;;;;;;11.50;6.10;;;;;;;;;;5008076;28;20465;-61
2021/07/28 08:48:31;;;;;;;9.77;6.60;;;;;;;;;;5006472;28;20037;-61
2021/07/28 08:50:58;;;;;;;10.18;6.82;;;;;;;;;;5007389;28;20125;-61
2021/07/28 08:53:24;;;;;;;10.32;5.88;;;;;;;;;;5007238;28;20508;-60
2021/07/28 08:55:55;;;;;;;8.98;6.18;;;;;;;;;;5009674;28;20165;-60
2021/07/28 08:58:24;;;;;;;10.52;6.28;;;;;;;;;;5009091;28;20138;-61
2021/07/28 09:00:51;;;;;;;8.18;5.90;;;;;;;;;;4988041;28;20057;-60
2021/07/28 09:03:17;;;;;;;8.52;5.63;;;;;;;;;;5006052;28;20189;-60
2021/07/28 09:05:48;;;;;;;8.40;5.45;;;;;;;;;;5006323;28;20044;-60
2021/07/28 09:08:32;;;;;;;8.98;5.72;;;;;;;;;;5005078;28;20506;-60
2021/07/28 09:10:57;;;;;;;8.88;6.00;;;;;;;;;;4989585;28;20025;-60
2021/07/28 09:13:37;;;;;;;9.07;6.30;;;;;;;;;;5007289;28;20060;-60
2021/07/28 09:16:07;;;;;;;9.30;6.13;;;;;;;;;;5000894;28;20034;-59
2021/07/28 09:18:41;;;;;;;8.63;6.88;;;;;;;;;;5006970;28;20041;-60
2021/07/28 09:21:26;;;;;;;10.45;6.47;;;;;;;;;;4988570;28;20141;-60
2021/07/28 09:24:21;;;;;;;8.73;5.85;;;;;;;;;;5005265;28;20116;-60
2021/07/28 09:26:55;;;;;;;8.50;5.40;;;;;;;;;;5005905;28;20452;-59
2021/07/28 09:29:27;;;;;;;7.80;5.35;;;;;;;;;;5005025;28;20709;-60
2021/07/28 09:31:55;;;;;;;7.85;5.13;;;;;;;;;;5006163;28;20022;-60
2021/07/28 09:34:21;;;;;;;5.80;4.68;;;;;;;;;;5007725;28;20118;-60
2021/07/28 09:36:49;;;;;;;8.35;4.35;;;;;;;;;;5006620;28;20066;-60
2021/07/28 09:39:32;;;;;;;6.93;4.60;;;;;;;;;;5005474;28;20038;-60
2021/07/28 09:41:59;;;;;;;11.07;4.90;;;;;;;;;;4988711;28;20504;-60
2021/07/28 09:44:25;;;;;;;7.40;4.60;;;;;;;;;;5005898;28;20046;-60
2021/07/28 09:47:05;;;;;;;6.55;4.40;;;;;;;;;;5007045;28;20028;-59
2021/07/28 09:49:30;;;;;;;8.98;5.65;;;;;;;;;;4972763;28;20037;-60
2021/07/28 09:51:56;;;;;;;8.00;4.80;;;;;;;;;;5007215;28;20038;-59
2021/07/28 09:54:29;;;;;;;6.50;4.72;;;;;;;;;;5006779;28;20029;-60
2021/07/28 09:56:55;;;;;;;6.97;4.65;;;;;;;;;;4989527;28;20038;-59
2021/07/28 09:59:23;;;;;;;6.60;4.60;;;;;;;;;;5005717;28;20118;-60
2021/07/28 10:01:50;;;;;;;8.70;4.68;;;;;;;;;;5005331;28;20099;-59
2021/07/28 10:04:17;;;;;;;7.80;4.80;;;;;;;;;;5006167;28;20129;-60
2021/07/28 10:06:46;;;;;;;6.05;4.35;;;;;;;;;;5004052;28;20030;-59
2021/07/28 10:09:14;;;;;;;5.90;4.18;;;;;;;;;;5004312;28;20681;-58
2021/07/28 10:11:43;;;;;;;7.20;4.63;;;;;;;;;;5004762;28;20495;-59
2021/07/28 10:14:10;;;;;;;6.43;4.28;;;;;;;;;;5005188;28;20033;-58
2021/07/28 10:16:36;;;;;;;7.18;4.15;;;;;;;;;;5005325;28;20071;-58
2021/07/28 10:19:03;;;;;;;8.80;3.95;;;;;;;;;;5005404;28;20025;-59
2021/07/28 10:21:34;;;;;;;6.60;4.22;;;;;;;;;;5006473;28;20030;-58
2021/07/28 10:24:00;;;;;;;6.10;3.95;;;;;;;;;;5006380;28;20048;-61
2021/07/28 10:26:26;;;;;;;7.20;4.20;;;;;;;;;;5005194;28;20045;-60
2021/07/28 10:28:54;;;;;;;6.03;3.88;;;;;;;;;;5003319;28;20038;-60
2021/07/28 10:31:20;;;;;;;5.47;3.88;;;;;;;;;;5005322;28;20400;-60
2021/07/28 10:33:51;;;;;;;8.15;4.32;;;;;;;;;;4989791;28;20543;-60
2021/07/28 10:36:18;;;;;;;9.00;4.13;;;;;;;;;;5007269;28;20033;-60
2021/07/28 10:38:52;;;;;;;6.97;4.43;;;;;;;;;;5004043;28;20037;-61
2021/07/28 10:41:46;;;;;;;7.68;3.88;;;;;;;;;;5007244;28;20111;-61
2021/07/28 10:44:17;;;;;;;5.20;3.83;;;;;;;;;;5005424;28;20034;-60
2021/07/28 10:47:05;;;;;;;7.20;4.72;;;;;;;;;;5006508;28;20033;-60
2021/07/28 10:49:34;;;;;;;8.80;4.30;;;;;;;;;;5006800;28;20228;-62
2021/07/28 10:52:00;;;;;;;5.68;3.88;;;;;;;;;;5008525;28;20108;-61
2021/07/28 10:54:48;;;;;;;6.60;3.90;;;;;;;;;;5003832;28;20444;-62
2021/07/28 10:57:32;;;;;;;8.25;3.97;;;;;;;;;;5008276;28;20538;-62
2021/07/28 10:59:58;;;;;;;8.93;4.18;;;;;;;;;;5002049;28;20448;-62
2021/07/28 11:02:23;;;;;;;7.90;4.25;;;;;;;;;;4991451;28;20026;-61
2021/07/28 11:05:22;;;;;;;6.07;4.05;;;;;;;;;;5009787;28;20543;-61
2021/07/28 11:08:05;;;;;;;6.10;4.00;;;;;;;;;;4988802;28;20037;-61
2021/07/28 11:10:38;;;;;;;5.07;3.47;;;;;;;;;;5008708;28;20049;-61
2021/07/28 11:13:08;;;;;;;5.35;3.60;;;;;;;;;;5006633;28;20026;-61
2021/07/28 11:15:35;;;;;;;6.32;4.35;;;;;;;;;;5007154;28;20045;-61
2021/07/28 11:18:01;;;;;;;6.47;3.60;;;;;;;;;;5008740;28;20302;-61
2021/07/28 11:20:38;;;;;;;5.80;4.10;;;;;;;;;;5009290;28;20505;-61
2021/07/28 11:23:23;;;;;;;5.88;3.90;;;;;;;;;;5005379;28;20109;-61
2021/07/28 11:25:48;;;;;;;5.47;3.83;;;;;;;;;;5008288;28;20045;-61
2021/07/28 11:28:17;;;;;;;6.40;3.67;;;;;;;;;;5007951;28;20025;-61
2021/07/28 11:30:43;;;;;;;5.23;3.83;;;;;;;;;;5005101;28;20025;-61
2021/07/28 11:33:16;;;;;;;8.50;3.88;;;;;;;;;;4991425;28;20099;-61
2021/07/28 11:35:47;;;;;;;5.35;3.40;;;;;;;;;;5001859;28;20030;-61
2021/07/28 11:38:18;;;;;;;4.93;3.30;;;;;;;;;;5006691;28;20026;-61
2021/07/28 11:40:45;;;;;;;6.05;3.30;;;;;;;;;;5009001;28;20732;-61
2021/07/28 11:43:30;;;;;;;5.00;3.58;;;;;;;;;;5006618;28;20033;-61
2021/07/28 11:45:58;;;;;;;6.30;3.80;;;;;;;;;;5009213;28;20030;-61
2021/07/28 11:48:37;;;;;;;5.63;3.67;;;;;;;;;;5009600;28;20112;-62
2021/07/28 11:51:06;;;;;;;5.63;4.00;;;;;;;;;;5007859;28;20599;-61
2021/07/28 11:53:33;;;;;;;5.50;3.80;;;;;;;;;;5006379;28;20044;-62
2021/07/28 11:56:12;;;;;;;4.90;3.60;;;;;;;;;;5007757;28;20166;-62
2021/07/28 11:58:55;;;;;;;7.10;3.80;;;;;;;;;;5007397;28;20025;-62
2021/07/28 12:01:24;;;;;;;4.97;3.30;;;;;;;;;;5008476;28;20695;-62
2021/07/28 12:04:03;;;;;;;;;;;;;;;;;;5008170;28;20030;-60
2021/07/28 12:06:39;;;;;;;;;;;;;;;;;;5008202;28;20447;-60
2021/07/28 12:09:18;;;;;;;5.97;3.50;;;;;;;;;;5007316;28;20388;-61
2021/07/28 12:11:44;;;;;;;5.30;3.67;;;;;;;;;;5020342;28;20034;-61
2021/07/28 12:14:09;;;;;;;7.72;3.97;;;;;;;;;;5009137;28;20072;-60
2021/07/28 12:16:41;;;;;;;7.45;4.13;;;;;;;;;;5006347;28;20061;-60
2021/07/28 12:19:06;;;;;;;6.85;3.70;;;;;;;;;;5007379;28;20112;-60
2021/07/28 12:22:01;;;;;;;4.72;3.47;;;;;;;;;;5006988;28;20114;-60
2021/07/28 12:24:47;;;;;;;5.28;3.50;;;;;;;;;;5008986;28;20046;-61
2021/07/28 12:27:24;;;;;;;6.13;3.67;;;;;;;;;;5009367;28;20163;-61
2021/07/28 12:29:59;;;;;;;5.60;3.50;;;;;;;;;;5006809;28;20029;-61
2021/07/28 12:32:39;;;;;;;4.72;3.58;;;;;;;;;;5004573;28;20033;-61
2021/07/28 12:35:14;;;;;;;4.50;3.83;;;;;;;;;;5006334;28;20025;-63
2021/07/28 12:37:41;;;;;;;6.22;4.15;;;;;;;;;;5008161;28;20823;-61
2021/07/28 12:40:07;;;;;;;6.07;3.78;;;;;;;;;;5007207;28;20053;-61
2021/07/28 12:42:33;;;;;;;7.28;4.10;;;;;;;;;;5005620;28;20143;-61
2021/07/28 12:44:59;;;;;;;4.32;3.67;;;;;;;;;;5007482;28;20128;-61
2021/07/28 12:47:24;;;;;;;5.15;3.53;;;;;;;;;;5005629;28;20045;-62
2021/07/28 12:49:50;;;;;;;6.50;3.50;;;;;;;;;;5007486;28;20113;-62
2021/07/28 12:52:16;;;;;;;6.28;3.88;;;;;;;;;;5008454;28;20057;-62
2021/07/28 12:54:42;;;;;;;4.93;3.65;;;;;;;;;;5000308;28;20572;-62
2021/07/28 12:57:07;;;;;;;7.85;3.85;;;;;;;;;;5007541;28;20088;-61
2021/07/28 12:59:33;;;;;;;4.90;3.75;;;;;;;;;;5006507;28;20109;-62
2021/07/28 13:02:01;;;;;;;5.50;3.78;;;;;;;;;;5002666;28;20100;-62
2021/07/28 13:04:27;;;;;;;7.07;4.65;;;;;;;;;;4974560;28;20034;-62
2021/07/28 13:06:58;;;;;;;7.18;4.35;;;;;;;;;;5005992;28;20026;-62
2021/07/28 13:09:24;;;;;;;5.60;4.03;;;;;;;;;;5005489;28;20112;-62
2021/07/28 13:11:49;;;;;;;5.68;3.50;;;;;;;;;;4988082;28;20109;-62
2021/07/28 13:14:15;;;;;;;6.80;3.85;;;;;;;;;;4989502;28;20083;-62
2021/07/28 13:16:40;;;;;;;4.88;3.72;;;;;;;;;;5008293;28;20038;-62
2021/07/28 13:19:05;;;;;;;5.43;3.70;;;;;;;;;;5005809;28;20084;-62
2021/07/28 13:21:31;;;;;;;5.15;3.60;;;;;;;;;;5007350;28;20025;-62
2021/07/28 13:23:56;;;;;;;6.05;4.00;;;;;;;;;;5022150;28;20092;-62
2021/07/28 13:26:22;;;;;;;4.90;3.92;;;;;;;;;;5007870;28;20037;-62
2021/07/28 13:28:47;;;;;;;7.38;4.20;;;;;;;;;;5004762;28;20026;-62
2021/07/28 13:31:13;;;;;;;5.30;3.60;;;;;;;;;;5007908;28;20084;-62
2021/07/28 13:33:38;;;;;;;4.72;3.42;;;;;;;;;;5007178;28;20033;-63
2021/07/28 13:36:04;;;;;;;5.88;3.83;;;;;;;;;;5007449;28;20100;-63
2021/07/28 13:38:31;;;;;;;6.07;4.10;;;;;;;;;;5005744;28;20037;-62
2021/07/28 13:40:56;;;;;;;5.47;4.22;;;;;;;;;;4990025;28;20025;-62
2021/07/28 13:43:22;;;;;;;6.88;4.05;;;;;;;;;;5001695;28;20076;-62
2021/07/28 13:45:47;;;;;;;4.15;3.47;;;;;;;;;;5007898;28;20366;-63
2021/07/28 13:48:13;;;;;;;5.15;3.70;;;;;;;;;;4988488;28;20136;-62
2021/07/28 13:50:39;;;;;;;4.80;3.80;;;;;;;;;;5007098;28;20050;-63
2021/07/28 13:53:05;;;;;;;4.40;3.72;;;;;;;;;;5007559;28;20048;-62
2021/07/28 13:55:30;;;;;;;4.28;3.45;;;;;;;;;;5005576;28;20515;-63
2021/07/28 13:57:56;;;;;;;5.63;3.63;;;;;;;;;;5004275;28;20557;-62
2021/07/28 14:00:21;;;;;;;5.13;3.92;;;;;;;;;;5006189;28;20087;-63
2021/07/28 14:02:47;;;;;;;7.00;4.82;;;;;;;;;;5007016;28;20099;-62
2021/07/28 14:05:13;;;;;;;4.50;3.53;;;;;;;;;;4989596;28;20025;-62
2021/07/28 14:07:39;;;;;;;6.28;3.72;;;;;;;;;;5005072;28;20034;-62
2021/07/28 14:10:05;;;;;;;5.80;4.30;;;;;;;;;;4989439;28;20803;-63
2021/07/28 14:12:31;;;;;;;4.72;3.60;;;;;;;;;;5004723;28;20030;-63
2021/07/28 14:14:58;;;;;;;4.32;3.85;;;;;;;;;;5004952;28;20042;-63
2021/07/28 14:17:24;;;;;;;5.57;4.10;;;;;;;;;;5007514;28;20145;-63
2021/07/28 14:19:49;;;;;;;5.05;4.13;;;;;;;;;;5005865;28;20702;-63
2021/07/28 14:22:15;;;;;;;4.43;4.00;;;;;;;;;;5007566;28;20061;-63
2021/07/28 14:24:41;;;;;;;7.38;3.75;;;;;;;;;;4993953;28;20103;-63
2021/07/28 14:27:06;;;;;;;4.75;4.00;;;;;;;;;;5008780;28;20323;-63
2021/07/28 14:29:32;;;;;;;4.25;3.35;;;;;;;;;;4990201;28;20105;-62
2021/07/28 14:31:57;;;;;;;5.30;4.35;;;;;;;;;;5009151;28;20026;-60
2021/07/28 14:34:23;;;;;;;6.10;4.15;;;;;;;;;;5008839;28;20030;-60
2021/07/28 14:36:48;;;;;;;4.45;3.92;;;;;;;;;;5007933;28;20033;-60
2021/07/28 14:39:14;;;;;;;4.57;4.03;;;;;;;;;;4991365;28;20061;-60